createdAt,value
2022-10-18T00:03:36.145Z,19.93
2022-10-18T00:07:38.870Z,20.08
2022-10-18T00:11:39.085Z,20.09
2022-10-18T00:15:39.259Z,20.08
2022-10-18T00:19:39.386Z,20.24
2022-10-18T00:23:42.169Z,20.14
2022-10-18T00:27:42.510Z,20.19
2022-10-18T00:31:42.694Z,20.20
2022-10-18T00:35:42.756Z,20.07
2022-10-18T00:39:45.815Z,20.06
2022-10-18T00:44:01.383Z,20.23
2022-10-18T00:48:07.126Z,20.40
2022-10-18T00:52:12.238Z,20.36
2022-10-18T00:56:16.002Z,20.34
2022-10-18T01:00:17.247Z,20.35
2022-10-18T01:04:19.571Z,20.34
2022-10-18T01:08:38.951Z,20.23
2022-10-18T01:12:56.098Z,20.32
2022-10-18T01:17:06.724Z,20.26
2022-10-18T01:21:27.155Z,20.25
2022-10-18T01:25:43.484Z,20.34
2022-10-18T01:30:10.469Z,20.35
2022-10-18T01:34:17.697Z,20.15
2022-10-18T01:38:22.207Z,20.29
2022-10-18T01:42:24.381Z,20.31
2022-10-18T01:46:27.571Z,20.32
2022-10-18T01:50:38.145Z,20.11
2022-10-18T01:54:44.225Z,20.22
2022-10-18T01:58:56.750Z,20.24
2022-10-18T02:03:09.645Z,20.25
2022-10-18T02:07:26.505Z,20.24
2022-10-18T02:11:27.721Z,20.17
2022-10-18T02:15:35.743Z,20.09
2022-10-18T02:19:42.148Z,20.08
2022-10-18T02:23:48.638Z,19.92
2022-10-18T02:27:49.315Z,20.11
2022-10-18T02:31:52.997Z,20.09
2022-10-18T02:36:02.247Z,20.01
2022-10-18T02:40:07.470Z,20.02
2022-10-18T02:44:07.993Z,20.06
2022-10-18T02:48:09.383Z,20.03
2022-10-18T02:52:09.539Z,20.03
2022-10-18T02:56:12.778Z,20.00
2022-10-18T03:00:15.097Z,20.11
2022-10-18T03:04:15.265Z,20.16
2022-10-18T03:08:15.505Z,20.00
2022-10-18T03:12:18.365Z,20.14
2022-10-18T03:16:18.647Z,20.00
2022-10-18T03:20:19.854Z,20.03
2022-10-18T03:24:20.404Z,20.05
2022-10-18T03:28:23.750Z,20.04
2022-10-18T03:32:24.024Z,20.12
2022-10-18T03:36:24.134Z,20.08
2022-10-18T03:40:24.286Z,20.06
2022-10-18T03:44:27.205Z,20.04
2022-10-18T03:48:27.566Z,19.95
2022-10-18T03:52:27.850Z,20.00
2022-10-18T03:56:28.245Z,20.15
2022-10-18T04:00:31.043Z,20.01
2022-10-18T04:04:31.204Z,19.92
2022-10-18T04:08:31.270Z,19.91
2022-10-18T04:12:31.811Z,19.90
2022-10-18T04:20:55.150Z,19.81
2022-10-18T04:24:56.898Z,19.85
2022-10-18T04:28:57.049Z,19.92
2022-10-18T04:32:59.786Z,19.82
2022-10-18T04:37:00.093Z,19.90
2022-10-18T04:41:00.250Z,19.96
2022-10-18T04:45:01.613Z,20.10
2022-10-18T04:49:05.284Z,19.95
2022-10-18T04:53:05.395Z,19.83
2022-10-18T04:57:05.864Z,19.69
2022-10-18T05:01:09.054Z,19.68
2022-10-18T05:05:14.071Z,19.60
2022-10-18T05:09:15.702Z,19.71
2022-10-18T05:13:15.758Z,19.75
2022-10-18T05:17:15.804Z,19.84
2022-10-18T05:21:19.391Z,19.74
2022-10-18T05:25:19.750Z,19.91
2022-10-18T05:29:19.985Z,20.09
2022-10-18T05:33:20.211Z,20.12
2022-10-18T05:37:26.105Z,20.09
2022-10-18T05:41:28.514Z,20.15
2022-10-18T05:45:28.829Z,20.17
2022-10-18T05:49:28.897Z,20.04
2022-10-18T05:53:36.684Z,20.03
2022-10-18T05:57:37.776Z,20.14
2022-10-18T06:01:37.859Z,19.85
2022-10-18T06:10:00.581Z,20.21
2022-10-18T06:14:01.805Z,20.32
2022-10-18T06:18:01.843Z,20.21
2022-10-18T06:22:02.026Z,19.94
2022-10-18T06:26:07.938Z,19.76
2022-10-18T06:30:10.162Z,19.78
2022-10-18T06:34:10.264Z,20.01
2022-10-18T06:38:10.321Z,20.02
2022-10-18T06:42:13.081Z,20.09
2022-10-18T06:46:13.207Z,20.25
2022-10-18T06:50:13.879Z,20.27
2022-10-18T06:54:17.964Z,20.31
2022-10-18T06:58:21.807Z,20.54
2022-10-18T07:02:21.871Z,20.65
2022-10-18T07:06:23.107Z,20.94
2022-10-18T07:10:23.233Z,20.87
2022-10-18T07:14:29.026Z,20.84
2022-10-18T07:18:29.371Z,20.89
2022-10-18T07:22:30.373Z,20.97
2022-10-18T07:26:33.528Z,20.96
2022-10-18T07:30:37.107Z,21.01
2022-10-18T07:34:37.474Z,21.02
2022-10-18T07:38:37.887Z,21.65
2022-10-18T07:42:38.837Z,21.80
2022-10-18T07:46:41.618Z,21.77
2022-10-18T07:50:41.654Z,21.89
2022-10-18T07:54:41.751Z,21.96
2022-10-18T07:58:41.966Z,22.19
2022-10-18T08:02:44.755Z,22.25
2022-10-18T08:06:45.257Z,22.26
2022-10-18T08:10:45.353Z,21.82
2022-10-18T08:14:45.455Z,22.03
2022-10-18T08:18:48.375Z,21.99
2022-10-18T08:22:48.505Z,22.03
2022-10-18T08:26:48.612Z,22.20
2022-10-18T08:30:48.703Z,22.48
2022-10-18T08:34:51.406Z,22.98
2022-10-18T08:38:51.946Z,23.27
2022-10-18T08:43:07.197Z,23.10
2022-10-18T08:47:14.955Z,23.42
2022-10-18T08:51:30.854Z,23.17
2022-10-18T08:55:39.428Z,23.14
2022-10-18T08:59:44.136Z,23.43
2022-10-18T09:04:16.477Z,23.87
2022-10-18T09:09:01.162Z,24.76
2022-10-18T09:13:29.674Z,25.10
2022-10-18T09:17:45.120Z,25.54
2022-10-18T09:21:55.403Z,25.43
2022-10-18T09:26:06.130Z,25.94
2022-10-18T09:30:22.445Z,26.44
2022-10-18T09:34:32.057Z,26.49
2022-10-18T09:38:36.145Z,27.08
2022-10-18T09:42:47.663Z,26.48
2022-10-18T09:46:55.897Z,27.46
2022-10-18T09:51:01.878Z,28.24
2022-10-18T09:55:12.284Z,28.22
2022-10-18T09:59:35.501Z,28.02
2022-10-18T10:03:36.866Z,28.35
2022-10-18T10:07:44.449Z,29.35
2022-10-18T10:11:50.586Z,29.45
2022-10-18T10:15:57.913Z,29.82
2022-10-18T10:20:06.329Z,30.85
2022-10-18T10:24:07.828Z,30.44
2022-10-18T10:28:15.586Z,31.46
2022-10-18T10:32:21.602Z,32.35
2022-10-18T10:36:24.210Z,33.09
2022-10-18T10:40:28.539Z,33.12
2022-10-18T10:44:33.660Z,33.19
2022-10-18T10:48:48.367Z,33.40
2022-10-18T10:52:51.430Z,32.65
2022-10-18T10:57:01.610Z,32.63
2022-10-18T11:01:19.276Z,32.18
2022-10-18T11:05:29.525Z,31.39
2022-10-18T11:09:51.569Z,31.28
2022-10-18T11:14:13.757Z,30.58
2022-10-18T11:18:26.711Z,29.86
2022-10-18T11:22:37.356Z,29.94
2022-10-18T11:26:53.780Z,29.17
2022-10-18T11:31:14.866Z,29.02
2022-10-18T11:35:35.817Z,28.39
2022-10-18T11:39:56.890Z,28.34
2022-10-18T11:44:03.307Z,27.97
2022-10-18T11:48:23.190Z,27.49
2022-10-18T11:52:33.808Z,27.72
2022-10-18T11:56:48.673Z,27.08
2022-10-18T12:00:56.641Z,27.49
2022-10-18T12:05:22.741Z,27.57
2022-10-18T12:09:31.883Z,27.22
2022-10-18T12:13:42.106Z,27.21
2022-10-18T12:17:50.065Z,26.79
2022-10-18T12:21:51.031Z,26.39
2022-10-18T12:25:57.932Z,26.43
2022-10-18T12:30:10.112Z,25.61
2022-10-18T12:34:29.861Z,25.03
2022-10-18T12:38:34.859Z,23.85
2022-10-18T12:42:44.781Z,23.88
2022-10-18T12:46:55.935Z,23.62
2022-10-18T12:51:02.827Z,23.78
2022-10-18T12:55:30.780Z,23.88
2022-10-18T12:59:54.953Z,23.65
2022-10-18T13:03:59.722Z,23.95
2022-10-18T13:08:42.443Z,24.04
2022-10-18T13:13:24.503Z,24.20
2022-10-18T13:17:36.469Z,24.59
2022-10-18T13:21:55.295Z,24.47
2022-10-18T13:26:07.112Z,24.35
2022-10-18T13:30:40.298Z,24.41
2022-10-18T13:34:40.817Z,24.23
2022-10-18T13:38:50.309Z,24.16
2022-10-18T13:42:50.430Z,24.15
2022-10-18T13:47:15.737Z,24.28
2022-10-18T13:51:38.204Z,24.44
2022-10-18T13:56:04.133Z,24.84
2022-10-18T14:00:33.107Z,24.66
2022-10-18T14:05:23.141Z,24.76
2022-10-18T14:13:55.127Z,24.35
2022-10-18T14:18:01.786Z,24.74
2022-10-18T14:22:15.547Z,24.60
2022-10-18T14:26:19.910Z,24.24
2022-10-18T14:30:24.147Z,24.26
2022-10-18T14:34:24.937Z,24.82
2022-10-18T14:38:25.011Z,24.94
2022-10-18T14:42:27.983Z,24.87
2022-10-18T14:46:31.810Z,25.21
2022-10-18T14:50:32.111Z,25.77
2022-10-18T14:54:36.697Z,25.68
2022-10-18T14:58:40.078Z,25.87
2022-10-18T15:02:43.330Z,25.39
2022-10-18T15:06:47.281Z,25.00
2022-10-18T15:10:47.649Z,25.03
2022-10-18T15:14:49.444Z,25.21
2022-10-18T15:19:10.007Z,25.07
2022-10-18T15:23:26.054Z,25.12
2022-10-18T15:27:32.757Z,25.06
2022-10-18T15:31:38.361Z,25.27
2022-10-18T15:35:42.249Z,25.05
2022-10-18T15:39:42.351Z,24.98
2022-10-18T15:43:42.505Z,25.07
2022-10-18T15:47:42.573Z,24.97
2022-10-18T15:51:52.475Z,25.04
2022-10-18T15:55:55.656Z,24.90
2022-10-18T16:00:00.718Z,24.72
2022-10-18T16:04:02.323Z,24.46
2022-10-18T16:08:05.123Z,24.29
2022-10-18T16:12:05.336Z,24.06
2022-10-18T16:16:05.583Z,23.76
2022-10-18T16:20:05.873Z,23.63
2022-10-18T16:24:09.423Z,23.48
2022-10-18T16:28:12.343Z,23.35
2022-10-18T16:32:12.380Z,23.34
2022-10-18T16:36:17.895Z,23.51
2022-10-18T16:40:27.648Z,23.59
2022-10-18T16:44:27.732Z,23.67
2022-10-18T16:48:28.470Z,23.66
2022-10-18T16:52:28.750Z,23.58
2022-10-18T16:56:34.422Z,23.52
2022-10-18T17:00:34.936Z,23.49
2022-10-18T17:04:35.017Z,23.45
2022-10-18T17:08:35.152Z,23.31
2022-10-18T17:12:37.838Z,23.38
2022-10-18T17:16:40.190Z,23.26
2022-10-18T17:20:40.488Z,23.64
2022-10-18T17:24:40.628Z,23.40
2022-10-18T17:28:43.539Z,23.56
2022-10-18T17:32:45.989Z,23.64
2022-10-18T17:36:46.174Z,23.50
2022-10-18T17:40:46.962Z,23.44
2022-10-18T17:44:54.174Z,23.51
2022-10-18T17:48:57.524Z,23.48
2022-10-18T17:52:57.823Z,23.48
2022-10-18T17:56:57.944Z,23.52
2022-10-18T18:01:00.858Z,23.72
2022-10-18T18:05:00.982Z,23.64
2022-10-18T18:09:04.909Z,23.63
2022-10-18T18:13:05.703Z,23.70
2022-10-18T18:17:09.021Z,23.76
2022-10-18T18:21:09.666Z,23.43
2022-10-18T18:25:12.435Z,23.54
2022-10-18T18:29:15.991Z,23.46
2022-10-18T18:33:21.590Z,23.65
2022-10-18T18:37:21.972Z,23.62
2022-10-18T18:41:24.481Z,23.66
2022-10-18T18:45:24.742Z,23.71
2022-10-18T18:49:29.625Z,23.59
2022-10-18T18:53:31.267Z,23.41
2022-10-18T18:57:32.709Z,23.55
2022-10-18T19:01:36.559Z,23.42
2022-10-18T19:05:40.894Z,23.52
2022-10-18T19:09:42.480Z,23.17
2022-10-18T19:13:42.561Z,23.29
2022-10-18T19:17:42.748Z,23.07
2022-10-18T19:21:49.182Z,22.77
2022-10-18T19:25:50.654Z,23.04
2022-10-18T19:29:51.110Z,23.23
2022-10-18T19:33:59.283Z,23.23
2022-10-18T19:38:02.754Z,23.23
2022-10-18T19:42:05.846Z,23.13
2022-10-18T19:46:08.032Z,23.41
2022-10-18T19:50:11.247Z,23.29
2022-10-18T19:54:18.082Z,23.19
2022-10-18T19:58:18.336Z,23.15
2022-10-18T20:02:18.496Z,23.19
2022-10-18T20:06:19.160Z,23.17
2022-10-18T20:10:22.823Z,23.29
2022-10-18T20:14:23.074Z,23.22
2022-10-18T20:18:24.101Z,23.40
2022-10-18T20:22:24.206Z,23.39
2022-10-18T20:26:28.183Z,23.51
2022-10-18T20:30:28.341Z,23.31
2022-10-18T20:34:29.004Z,23.24
2022-10-18T20:38:29.764Z,23.13
2022-10-18T20:42:32.748Z,22.98
2022-10-18T20:46:38.162Z,22.69
2022-10-18T20:50:43.436Z,22.55
2022-10-18T20:54:43.639Z,22.17
2022-10-18T20:58:48.149Z,21.94
2022-10-18T21:02:48.187Z,21.89
2022-10-18T21:06:48.267Z,21.72
2022-10-18T21:10:49.980Z,21.47
2022-10-18T21:14:53.391Z,21.34
2022-10-18T21:18:54.133Z,21.24
2022-10-18T21:22:54.426Z,21.26
2022-10-18T21:26:54.644Z,21.09
2022-10-18T21:30:57.903Z,20.84
2022-10-18T21:34:58.194Z,20.83
2022-10-18T21:38:58.257Z,20.76
2022-10-18T21:42:58.469Z,20.55
2022-10-18T21:47:01.212Z,20.64
2022-10-18T21:51:06.256Z,20.89
2022-10-18T21:55:07.389Z,21.08
2022-10-18T21:59:08.137Z,21.00
2022-10-18T22:03:16.398Z,21.07
2022-10-18T22:07:16.425Z,20.83
2022-10-18T22:11:18.762Z,20.61
2022-10-18T22:15:19.132Z,20.60
2022-10-18T22:19:22.014Z,20.56
2022-10-18T22:23:22.095Z,20.44
2022-10-18T22:27:22.338Z,20.52
2022-10-18T22:31:25.733Z,20.33
2022-10-18T22:35:28.404Z,20.51
2022-10-18T22:39:28.433Z,20.21
2022-10-18T22:43:28.527Z,20.21
2022-10-18T22:47:28.609Z,20.24
2022-10-18T22:51:31.342Z,20.23
2022-10-18T22:55:31.421Z,20.22
2022-10-18T22:59:31.488Z,20.31
2022-10-18T23:03:31.987Z,20.24
2022-10-18T23:07:34.689Z,20.32
2022-10-18T23:11:35.533Z,20.41
2022-10-18T23:15:35.926Z,20.32
2022-10-18T23:19:36.056Z,20.41
2022-10-18T23:23:43.506Z,20.44
2022-10-18T23:32:03.845Z,20.47
2022-10-18T23:36:03.940Z,20.34
2022-10-18T23:40:07.558Z,20.41
2022-10-18T23:44:09.111Z,20.27
2022-10-18T23:48:10.909Z,20.09
2022-10-18T23:52:11.558Z,19.92
2022-10-18T23:56:17.305Z,19.87
